.
WxDataArchive / Data Records for 2015-02-14
2015-02-13 February 2015 2015-02-15

Data Records for Saturday, 14 February 2015

Time	Temp	Chill	HIndex	Humid	Dewpt	 Wind 	HiWind	WindDir	Rain 	Barom
-----	----	-----	------	-----	-----	------	------	-------	-----	-----
00:00	26.1	26.1	26.1	61	14.5	3	7	248	0.00	29.930 
00:05	26.1	26.1	26.1	62	14.9	1	3	248	0.00	29.930 
00:10	26.1	26.1	26.1	62	14.9	2	5	248	0.00	29.930 
00:15	26.1	26.1	26.1	62	14.9	2	9	248	0.00	29.917 
00:20	26.3	26.3	26.3	62	15.1	2	5	270	0.00	29.917 
00:25	26.3	26.3	26.3	62	15.1	2	5	248	0.00	29.917 
00:30	26.3	26.3	26.3	62	15.1	1	3	248	0.00	29.908 
00:35	26.4	26.4	26.4	62	15.2	2	6	248	0.00	29.908 
00:40	26.4	26.4	26.4	62	15.2	2	5	248	0.00	29.908 
00:45	26.4	26.4	26.4	62	15.2	2	9	248	0.00	29.901 
00:50	26.6	26.6	26.6	63	15.7	1	3	248	0.00	29.901 
00:55	26.6	26.6	26.6	63	15.7	0	4	248	0.00	29.901 
01:00	26.6	26.6	26.6	63	15.7	2	6	248	0.00	29.889 
01:05	26.6	26.6	26.6	63	15.7	1	6	248	0.00	29.889 
01:10	26.6	26.6	26.6	63	15.7	2	5	248	0.00	29.889 
01:15	26.7	26.7	26.7	63	15.8	2	5	248	0.00	29.880 
01:20	26.7	26.7	26.7	63	15.8	2	4	248	0.00	29.880 
01:25	26.9	26.9	26.9	63	16.0	2	5	248	0.00	29.880 
01:30	26.9	26.9	26.9	63	16.0	2	9	248	0.00	29.872 
01:35	26.9	26.9	26.9	63	16.0	2	5	270	0.00	29.872 
01:40	26.9	26.9	26.9	63	16.0	2	6	248	0.00	29.872 
01:45	27.0	27.0	27.0	63	16.1	1	5	248	0.00	29.863 
01:50	27.0	27.0	27.0	63	16.1	3	9	248	0.00	29.863 
01:55	27.0	27.0	27.0	63	16.1	3	6	248	0.00	29.863 
02:00	27.2	27.2	27.2	64	16.7	2	6	248	0.00	29.858 
02:05	27.2	27.2	27.2	64	16.7	2	6	248	0.00	29.858 
02:10	27.2	27.2	27.2	64	16.7	2	6	248	0.00	29.858 
02:15	27.2	27.2	27.2	64	16.7	2	6	248	0.00	29.847 
02:20	27.2	27.2	27.2	64	16.7	3	9	270	0.00	29.847 
02:25	27.2	27.2	27.2	64	16.7	2	8	270	0.00	29.847 
02:30	27.3	27.3	27.3	65	17.1	2	7	248	0.00	29.835 
02:35	27.3	27.3	27.3	65	17.1	2	5	248	0.00	29.835 
02:40	27.3	27.3	27.3	65	17.1	2	6	248	0.00	29.835 
02:45	27.3	27.3	27.3	65	17.1	1	5	248	0.00	29.828 
02:50	27.3	27.3	27.3	65	17.1	2	5	248	0.00	29.828 
02:55	27.5	27.5	27.5	65	17.3	2	6	248	0.00	29.828 
03:00	27.5	27.5	27.5	65	17.3	1	4	248	0.00	29.814 
03:05	27.5	27.5	27.5	65	17.3	2	5	248	0.00	29.814 
03:10	27.5	27.5	27.5	65	17.3	2	4	248	0.00	29.814 
03:15	27.5	27.5	27.5	66	17.7	1	5	248	0.00	29.800 
03:20	27.6	27.6	27.6	66	17.8	2	5	248	0.00	29.800 
03:25	27.6	27.6	27.6	66	17.8	2	4	248	0.00	29.800 
03:30	27.6	27.6	27.6	66	17.8	1	5	248	0.00	29.797 
03:35	27.6	27.6	27.6	66	17.8	2	5	248	0.00	29.797 
03:40	27.8	27.8	27.8	66	17.9	2	5	248	0.00	29.797 
03:45	27.8	27.8	27.8	67	18.3	1	4	248	0.00	29.782 
03:50	27.8	27.8	27.8	67	18.3	2	5	248	0.00	29.782 
03:55	27.8	27.8	27.8	67	18.3	2	7	248	0.00	29.782 
04:00	27.9	27.9	27.9	67	18.4	3	9	248	0.00	29.769 
04:05	27.9	27.9	27.9	67	18.4	2	5	248	0.00	29.769 
04:10	27.9	27.9	27.9	68	18.7	2	4	248	0.00	29.769 
04:15	27.9	27.9	27.9	68	18.7	2	6	270	0.00	29.766 
04:20	27.9	27.9	27.9	68	18.7	3	8	248	0.00	29.766 
04:25	27.9	27.9	27.9	69	19.1	2	5	248	0.00	29.766 
04:30	27.8	27.8	27.8	69	19.0	2	6	248	0.00	29.753 
04:35	27.8	23.2	27.8	69	19.0	4	6	270	0.00	29.753 
04:40	27.8	27.8	27.8	69	19.0	3	10	248	0.00	29.753 
04:45	27.8	27.8	27.8	69	19.0	3	7	248	0.00	29.757 
04:50	27.8	23.2	27.8	69	19.0	4	9	270	0.00	29.757 
04:55	27.8	27.8	27.8	69	19.0	3	6	248	0.00	29.757 
05:00	27.8	27.8	27.8	69	19.0	2	6	248	0.00	29.752 
05:05	27.8	27.8	27.8	69	19.0	3	5	248	0.00	29.752 
05:10	27.6	27.6	27.6	69	18.8	1	4	248	0.00	29.752 
05:15	27.6	27.6	27.6	70	19.1	1	3	248	0.00	29.743 
05:20	27.6	27.6	27.6	70	19.1	1	4	248	0.00	29.743 
05:25	27.6	27.6	27.6	71	19.4	1	4	248	0.00	29.743 
05:30	27.6	27.6	27.6	71	19.4	1	4	248	0.00	29.739 
05:35	27.5	27.5	27.5	71	19.4	1	4	248	0.00	29.739 
05:40	27.5	27.5	27.5	72	19.7	1	3	248	0.00	29.739 
05:45	27.5	27.5	27.5	72	19.7	1	4	248	0.00	29.742 
05:50	27.5	27.5	27.5	73	20.0	1	3	248	0.00	29.742 
05:55	27.5	27.5	27.5	73	20.0	1	4	248	0.00	29.742 
06:00	27.5	27.5	27.5	73	20.0	1	4	248	0.00	29.736 
06:05	27.3	27.3	27.3	74	20.1	1	3	248	0.00	29.736 
06:10	27.3	27.3	27.3	74	20.1	1	3	248	0.00	29.736 
06:15	27.3	27.3	27.3	75	20.4	2	5	248	0.00	29.736 
06:20	27.3	27.3	27.3	75	20.4	2	5	248	0.00	29.736 
06:25	27.2	27.2	27.2	76	20.7	2	4	292	0.00	29.736 
06:30	27.2	27.2	27.2	77	21.0	2	4	248	0.00	29.734 
06:35	27.0	27.0	27.0	78	21.1	1	4	248	0.00	29.734 
06:40	26.9	26.9	26.9	79	21.3	2	5	270	0.00	29.734 
06:45	26.7	26.7	26.7	80	21.4	1	4	270	0.00	29.733 
06:50	26.6	26.6	26.6	81	21.6	2	6	270	0.00	29.733 
06:55	26.6	26.6	26.6	82	21.9	1	4	270	0.00	29.733 
07:00	26.4	26.4	26.4	82	21.7	1	3	270	0.00	29.719 
07:05	26.4	26.4	26.4	83	22.0	2	5	270	0.00	29.719 
07:10	26.4	26.4	26.4	82	21.7	2	5	248	0.00	29.719 
07:15	26.4	26.4	26.4	82	21.7	2	5	248	0.00	29.712 
07:20	26.6	26.6	26.6	81	21.6	2	7	270	0.00	29.712 
07:25	26.6	26.6	26.6	80	21.3	1	3	270	0.00	29.712 
07:30	26.6	26.6	26.6	79	21.0	2	6	270	0.00	29.708 
07:35	26.7	26.7	26.7	77	20.5	2	4	270	0.00	29.708 
07:40	26.7	26.7	26.7	76	20.2	1	5	270	0.00	29.708 
07:45	26.9	26.9	26.9	75	20.1	2	6	270	0.00	29.701 
07:50	26.9	26.9	26.9	74	19.7	2	5	292	0.00	29.701 
07:55	26.9	26.9	26.9	73	19.4	1	4	292	0.00	29.701 
08:00	26.9	26.9	26.9	73	19.4	2	3	292	0.00	29.693 
08:05	27.0	27.0	27.0	71	18.9	2	5	292	0.00	29.693 
08:10	27.0	27.0	27.0	71	18.9	2	4	270	0.00	29.693 
08:15	27.0	27.0	27.0	71	18.9	1	3	270	0.00	29.689 
08:20	27.0	27.0	27.0	70	18.5	2	6	270	0.00	29.689 
08:25	27.0	27.0	27.0	70	18.5	3	6	270	0.00	29.689 
08:30	27.0	27.0	27.0	70	18.5	3	9	248	0.00	29.689 
08:35	27.0	27.0	27.0	70	18.5	2	4	270	0.00	29.689 
08:40	27.0	27.0	27.0	71	18.9	2	6	248	0.00	29.689 
08:45	27.0	27.0	27.0	72	19.2	3	5	270	0.00	29.687 
08:50	27.0	27.0	27.0	72	19.2	2	6	292	0.00	29.687 
08:55	26.9	22.2	26.9	75	20.1	4	7	270	0.00	29.687 
09:00	26.4	26.4	26.4	77	20.2	3	6	270	0.00	29.687 
09:05	26.1	26.1	26.1	80	20.8	2	5	270	0.00	29.687 
09:10	25.8	25.8	25.8	82	21.1	2	5	270	0.00	29.687 
09:15	25.7	25.7	25.7	84	21.5	3	6	270	0.00	29.691 
09:20	25.4	25.4	25.4	85	21.5	3	6	270	0.00	29.691 
09:25	24.5	19.4	24.5	85	20.6	4	12	292	0.00	29.691 
09:30	23.6	17.2	23.6	84	19.5	5	14	292	0.00	29.699 
09:35	23.6	18.4	23.6	84	19.5	4	14	292	0.00	29.699 
09:40	23.6	23.6	23.6	83	19.2	3	7	292	0.00	29.699 
09:45	23.6	23.6	23.6	82	18.9	3	7	338	0.00	29.706 
09:50	23.2	16.7	23.2	82	18.5	5	11	315	0.00	29.706 
09:55	22.7	16.2	22.7	80	17.5	5	11	315	0.00	29.706 
10:00	22.7	17.3	22.7	77	16.6	4	12	270	0.00	29.707 
10:05	22.7	17.3	22.7	77	16.6	4	11	292	0.00	29.707 
10:10	22.7	16.2	22.7	75	16.0	5	14	315	0.00	29.707 
10:15	22.2	14.6	22.2	72	14.6	6	15	292	0.00	29.714 
10:20	22.1	15.4	22.1	71	14.2	5	11	292	0.00	29.714 
10:25	21.6	14.9	21.6	71	13.7	5	14	315	0.00	29.714 
10:30	21.6	16.1	21.6	72	14.0	4	9	315	0.00	29.724 
10:35	21.6	16.1	21.6	70	13.4	4	8	292	0.00	29.724 
10:40	21.3	13.5	21.3	68	12.4	6	13	292	0.00	29.724 
10:45	21.1	13.2	21.1	65	11.2	6	13	315	0.00	29.738 
10:50	20.6	12.7	20.6	64	10.4	6	14	292	0.00	29.738 
10:55	20.3	12.3	20.3	64	10.1	6	15	338	0.00	29.738 
11:00	19.2	11.0	19.2	69	10.7	6	13	292	0.00	29.756 
11:05	18.6	12.6	18.6	72	11.1	4	15	292	0.00	29.756 
11:10	18.6	11.3	18.6	66	9.2	5	13	292	0.00	29.756 
11:15	18.8	10.5	18.8	62	8.0	6	13	292	0.00	29.763 
11:20	19.1	10.9	19.1	60	7.5	6	15	315	0.00	29.763 
11:25	19.1	9.1	19.1	59	7.2	8	14	292	0.00	29.763 
11:30	19.2	11.0	19.2	58	6.9	6	15	292	0.00	29.774 
11:35	19.5	12.4	19.5	58	7.2	5	14	315	0.00	29.774 
11:40	19.5	12.4	19.5	58	7.2	5	11	292	0.00	29.774 
11:45	18.8	10.5	18.8	68	10.0	6	15	292	0.00	29.800 
11:50	17.5	9.0	17.5	69	9.1	6	17	315	0.00	29.800 
11:55	17.0	9.5	17.0	73	9.9	5	17	338	0.00	29.800 
12:00	16.1	9.7	16.1	73	9.0	4	13	338	0.00	29.823 
12:05	16.1	16.1	16.1	73	9.0	3	7	338	0.00	29.823 
12:10	15.9	9.5	15.9	70	7.9	4	11	338	0.00	29.823 
12:15	15.7	7.9	15.7	68	7.0	5	13	315	0.00	29.836 
12:20	15.6	7.8	15.6	66	6.3	5	13	338	0.00	29.836 
12:25	15.7	7.9	15.7	64	5.7	5	11	338	0.00	29.836 
12:30	16.1	8.4	16.1	61	5.1	5	13	338	0.00	29.849 
12:35	16.4	10.1	16.4	58	4.2	4	11	338	0.00	29.849 
12:40	15.9	7.1	15.9	56	3.0	6	13	338	0.00	29.849 
12:45	15.7	7.9	15.7	54	2.0	5	14	338	0.00	29.860 
12:50	15.6	6.7	15.6	52	1.1	6	17	338	0.00	29.860 
12:55	15.2	7.3	15.2	52	0.8	5	13	338	0.00	29.860 
13:00	15.4	7.6	15.4	50	0.1	5	12	315	0.00	29.876 
13:05	15.6	9.1	15.6	48	-0.6	4	11	292	0.00	29.876 
13:10	15.7	5.9	15.7	44	-2.3	7	14	292	0.00	29.876 
13:15	15.6	4.9	15.6	43	-2.9	8	14	315	0.00	29.882 
13:20	16.1	7.3	16.1	45	-1.5	6	11	338	0.00	29.882 
13:25	16.1	6.3	16.1	42	-2.9	7	16	315	0.00	29.882 
13:30	16.1	7.3	16.1	41	-3.4	6	14	338	0.00	29.892 
13:35	16.4	16.4	16.4	51	1.5	3	10	315	0.00	29.892 
13:40	16.7	16.7	16.7	50	1.3	3	9	315	0.00	29.892 
13:45	16.7	10.4	16.7	48	0.5	4	10	315	0.00	29.902 
13:50	15.9	7.1	15.9	53	1.8	6	17	292	0.00	29.902 
13:55	15.4	7.6	15.4	50	0.1	5	11	292	0.00	29.902 
14:00	15.4	7.6	15.4	52	1.0	5	11	270	0.00	29.919 
14:05	14.4	7.7	14.4	62	3.8	4	11	0	0.00	29.919 
14:10	13.5	6.7	13.5	64	3.6	4	11	338	0.00	29.919 
14:15	13.1	3.7	13.1	58	1.1	6	16	338	0.00	29.934 
14:20	12.9	3.5	12.9	51	-1.8	6	12	292	0.00	29.934 
14:25	13.3	5.1	13.3	49	-2.2	5	10	292	0.00	29.934 
14:30	13.8	7.1	13.8	47	-2.7	4	11	292	0.00	29.944 
14:35	14.0	4.8	14.0	45	-3.4	6	12	315	0.00	29.944 
14:40	13.8	3.6	13.8	43	-4.5	7	15	292	0.00	29.944 
14:45	13.3	3.0	13.3	43	-5.0	7	23	338	0.00	29.963 
14:50	13.1	4.9	13.1	43	-5.1	5	13	292	0.00	29.963 
14:55	12.9	3.5	12.9	40	-6.8	6	14	315	0.00	29.963 
15:00	13.1	3.7	13.1	39	-7.2	6	13	292	0.00	29.970 
15:05	12.9	3.5	12.9	40	-6.8	6	15	292	0.00	29.970 
15:10	12.6	2.1	12.6	40	-7.1	7	15	292	0.00	29.970 
15:15	12.3	2.8	12.3	41	-6.9	6	16	292	0.00	29.985 
15:20	12.4	4.1	12.4	43	-5.8	5	11	292	0.00	29.985 
15:25	12.4	5.4	12.4	43	-5.8	4	16	315	0.00	29.985 
15:30	12.6	5.7	12.6	41	-6.6	4	14	338	0.00	29.998 
15:35	12.6	4.3	12.6	41	-6.6	5	15	292	0.00	29.998 
15:40	12.1	1.5	12.1	42	-6.5	7	17	292	0.00	29.998 
15:45	11.6	0.9	11.6	43	-6.5	7	14	292	0.00	30.015 
15:50	11.4	0.7	11.4	43	-6.7	7	14	292	0.00	30.015 
15:55	11.2	1.5	11.2	45	-6.0	6	18	338	0.00	30.015 
16:00	11.6	1.9	11.6	44	-6.0	6	17	315	0.00	30.034 
16:05	11.6	1.9	11.6	46	-5.1	6	14	338	0.00	30.034 
16:10	11.2	-1.3	11.2	46	-5.5	9	16	292	0.00	30.034 
16:15	11.2	0.4	11.2	44	-6.4	7	16	292	0.00	30.048 
16:20	11.4	1.7	11.4	45	-5.8	6	17	292	0.00	30.048 
16:25	11.4	1.7	11.4	44	-6.2	6	14	292	0.00	30.048 
16:30	11.6	1.9	11.6	46	-5.1	6	12	292	0.00	30.060 
16:35	11.4	1.7	11.4	46	-5.3	6	12	292	0.00	30.060 
16:40	11.2	1.5	11.2	42	-7.4	6	15	292	0.00	30.060 
16:45	10.9	0.1	10.9	42	-7.6	7	17	338	0.00	30.071 
16:50	10.9	1.1	10.9	42	-7.6	6	16	315	0.00	30.071 
16:55	10.9	0.1	10.9	42	-7.6	7	17	292	0.00	30.071 
17:00	10.9	1.1	10.9	43	-7.2	6	15	292	0.00	30.090 
17:05	10.9	2.3	10.9	43	-7.2	5	11	292	0.00	30.090 
17:10	10.9	2.3	10.9	43	-7.2	5	14	292	0.00	30.090 
17:15	10.9	3.7	10.9	40	-8.6	4	13	315	0.00	30.098 
17:20	10.9	3.7	10.9	40	-8.6	4	11	315	0.00	30.098 
17:25	10.7	3.5	10.7	39	-9.3	4	14	0	0.00	30.098 
17:30	10.7	3.5	10.7	39	-9.3	4	11	315	0.00	30.112 
17:35	10.5	-0.4	10.5	39	-9.5	7	16	292	0.00	30.112 
17:40	10.4	3.1	10.4	40	-9.1	4	14	292	0.00	30.112 
17:45	10.4	10.4	10.4	42	-8.1	3	10	292	0.00	30.126 
17:50	10.2	2.9	10.2	43	-7.8	4	10	315	0.00	30.126 
17:55	10.0	2.7	10.0	45	-7.1	4	12	292	0.00	30.126 
18:00	9.9	9.9	9.9	46	-6.7	2	5	315	0.00	30.143 
18:05	9.7	9.7	9.7	47	-6.4	3	7	270	0.00	30.143 
18:10	9.3	9.3	9.3	47	-6.8	3	12	292	0.00	30.143 
18:15	9.3	1.9	9.3	47	-6.8	4	10	270	0.00	30.164 
18:20	9.2	9.2	9.2	47	-6.9	3	7	315	0.00	30.164 
18:25	9.2	9.2	9.2	47	-6.9	2	7	270	0.00	30.164 
18:30	9.0	9.0	9.0	46	-7.5	3	7	338	0.00	30.177 
18:35	9.0	9.0	9.0	47	-7.1	3	6	270	0.00	30.177 
18:40	9.0	9.0	9.0	47	-7.1	2	8	292	0.00	30.177 
18:45	9.0	9.0	9.0	47	-7.1	3	6	270	0.00	30.188 
18:50	8.8	8.8	8.8	46	-7.7	2	6	292	0.00	30.188 
18:55	8.8	8.8	8.8	46	-7.7	2	10	270	0.00	30.188 
19:00	8.8	8.8	8.8	46	-7.7	3	7	292	0.00	30.203 
19:05	8.8	8.8	8.8	47	-7.3	2	9	270	0.00	30.203 
19:10	8.6	8.6	8.6	47	-7.5	2	5	292	0.00	30.203 
19:15	8.6	8.6	8.6	47	-7.5	2	9	292	0.00	30.210 
19:20	8.8	8.8	8.8	47	-7.3	3	9	292	0.00	30.210 
19:25	8.8	8.8	8.8	46	-7.7	3	10	315	0.00	30.210 
19:30	8.6	8.6	8.6	46	-7.9	2	5	292	0.00	30.224 
19:35	8.6	8.6	8.6	46	-7.9	2	10	292	0.00	30.224 
19:40	8.6	8.6	8.6	46	-7.9	2	6	315	0.00	30.224 
19:45	8.6	8.6	8.6	45	-8.3	2	10	338	0.00	30.235 
19:50	8.6	1.0	8.6	44	-8.8	4	12	292	0.00	30.235 
19:55	8.6	8.6	8.6	43	-9.3	3	7	292	0.00	30.235 
20:00	8.6	8.6	8.6	44	-8.8	2	10	292	0.00	30.252 
20:05	8.4	8.4	8.4	45	-8.5	3	10	292	0.00	30.252 
20:10	8.4	8.4	8.4	46	-8.1	3	8	292	0.00	30.252 
20:15	8.3	8.3	8.3	47	-7.7	2	6	270	0.00	30.259 
20:20	8.3	8.3	8.3	46	-8.2	2	6	270	0.00	30.259 
20:25	8.4	8.4	8.4	45	-8.5	3	10	315	0.00	30.259 
20:30	8.4	8.4	8.4	44	-9.0	3	9	338	0.00	30.271 
20:35	8.4	8.4	8.4	44	-9.0	3	7	292	0.00	30.271 
20:40	8.4	8.4	8.4	43	-9.4	3	7	338	0.00	30.271 
20:45	8.4	8.4	8.4	44	-9.0	2	10	315	0.00	30.279 
20:50	8.4	8.4	8.4	45	-8.5	3	7	292	0.00	30.279 
20:55	8.4	8.4	8.4	45	-8.5	2	10	270	0.00	30.279 
21:00	8.4	8.4	8.4	44	-9.0	3	13	292	0.00	30.289 
21:05	8.4	8.4	8.4	44	-9.0	3	9	338	0.00	30.289 
21:10	8.3	8.3	8.3	45	-8.6	2	7	292	0.00	30.289 
21:15	8.3	8.3	8.3	46	-8.2	2	11	315	0.00	30.297 
21:20	8.1	8.1	8.1	46	-8.3	2	6	315	0.00	30.297 
21:25	8.1	8.1	8.1	47	-7.9	1	6	292	0.00	30.297 
21:30	7.9	7.9	7.9	48	-7.7	3	10	292	0.00	30.305 
21:35	7.9	7.9	7.9	48	-7.7	3	6	315	0.00	30.305 
21:40	7.9	7.9	7.9	49	-7.2	2	6	315	0.00	30.305 
21:45	7.7	7.7	7.7	50	-7.0	2	5	292	0.00	30.316 
21:50	7.7	7.7	7.7	50	-7.0	3	6	292	0.00	30.316 
21:55	7.6	7.6	7.6	51	-6.7	1	5	338	0.00	30.316 
22:00	7.4	7.4	7.4	51	-6.9	1	5	292	0.00	30.322 
22:05	7.4	7.4	7.4	51	-6.9	2	6	315	0.00	30.322 
22:10	7.4	7.4	7.4	51	-6.9	1	4	338	0.00	30.322 
22:15	7.4	7.4	7.4	51	-6.9	1	5	338	0.00	30.329 
22:20	7.4	7.4	7.4	51	-6.9	2	5	338	0.00	30.329 
22:25	7.4	7.4	7.4	50	-7.3	1	8	292	0.00	30.329 
22:30	7.2	7.2	7.2	50	-7.5	1	5	292	0.00	30.336 
22:35	7.2	7.2	7.2	50	-7.5	1	6	292	0.00	30.336 
22:40	7.2	7.2	7.2	50	-7.5	2	5	315	0.00	30.336 
22:45	7.2	7.2	7.2	50	-7.5	1	4	292	0.00	30.344 
22:50	7.2	7.2	7.2	49	-7.9	2	7	338	0.00	30.344 
22:55	7.2	7.2	7.2	46	-9.2	2	7	292	0.00	30.344 
23:00	7.2	7.2	7.2	48	-8.3	2	9	0	0.00	30.344 
23:05	7.2	7.2	7.2	48	-8.3	1	5	338	0.00	30.344 
23:10	7.0	7.0	7.0	48	-8.5	2	7	315	0.00	30.344 
23:15	7.0	7.0	7.0	49	-8.1	1	9	292	0.00	30.351 
23:20	6.9	6.9	6.9	49	-8.2	1	7	292	0.00	30.351 
23:25	6.9	6.9	6.9	50	-7.8	2	5	292	0.00	30.351 
23:30	6.9	6.9	6.9	50	-7.8	1	6	270	0.00	30.355 
23:35	6.7	6.7	6.7	51	-7.5	1	4	292	0.00	30.355 
23:40	6.7	6.7	6.7	51	-7.5	1	4	338	0.00	30.355 
23:45	6.5	6.5	6.5	51	-7.7	2	6	270	0.00	30.361 
23:50	6.5	6.5	6.5	51	-7.7	2	5	292	0.00	30.361 
23:55	6.5	6.5	6.5	51	-7.7	2	5	292	0.00	30.361 

CoCoRaHS
IN-AL-39
A2 Web Hosting
Creative Commons License
GoDaddy
search engine by freefind advanced

loaded 2018-11-17 19:26:03 • last modified 2010-11-18 10:43:29
Privacy PolicyDisclaimer
• wx.awcolley.com is powered by PmWiki v.2002016 •
• all content (unless otherwise noted) © 2018 A W Colley